Terminal Aerodrome Forecast
Issued by NWS Grand Rapids, MI

Home | Current Version | Previous Version | Text Only | Print | Product List | Glossary On
Versions: 1 2 3 4 5 6 7 8 9 10 11 12 13 14 15 16 17 18 19 20
000
FTUS43 KGRR 240500
TAFGRR
TAF
KGRR 240531Z 2406/2506 17003KT P6SM BKN080
     FM240900 20004KT P6SM BKN040
     FM241400 22005KT P6SM OVC025
     FM242000 22006KT P6SM BKN040
     FM250200 20005KT P6SM SCT040=

USA.gov is the U.S. government's official web portal to all federal, state and local government web resources and services.